createdAt,value
2022-10-14T00:00:08.567Z,98281.41
2022-10-14T00:03:20.406Z,98290.38
2022-10-14T00:06:30.466Z,98288.88
2022-10-14T00:09:36.114Z,98279.59
2022-10-14T00:12:41.693Z,98288.88
2022-10-14T00:15:50.068Z,98267.16
2022-10-14T00:18:56.799Z,98278.41
2022-10-14T00:22:02.475Z,98275.41
2022-10-14T00:25:08.932Z,98271.25
2022-10-14T00:28:30.045Z,98273.91
2022-10-14T00:31:39.280Z,98263.63
2022-10-14T00:34:45.208Z,98262.94
2022-10-14T00:37:50.982Z,98264.09
2022-10-14T00:41:02.055Z,98267.63
2022-10-14T00:44:11.560Z,98266.59
2022-10-14T00:47:23.117Z,98269.63
2022-10-14T00:50:29.070Z,98268.13
2022-10-14T00:53:35.669Z,98266.28
2022-10-14T00:56:41.692Z,98250.69
2022-10-14T00:59:49.542Z,98266.13
2022-10-14T01:03:00.246Z,98253.84
2022-10-14T01:06:32.070Z,98248.22
2022-10-14T01:09:50.932Z,98248.16
2022-10-14T01:13:28.049Z,98247.47
2022-10-14T01:16:55.473Z,98246.47
2022-10-14T01:20:45.999Z,98244.78
2022-10-14T01:24:36.120Z,98246.59
2022-10-14T01:28:16.184Z,98235.31
2022-10-14T01:31:33.677Z,98234.53
2022-10-14T01:34:52.602Z,98237.41
2022-10-14T01:38:08.157Z,98234.06
2022-10-14T01:41:24.079Z,98233.41
2022-10-14T01:44:39.210Z,98236.06
2022-10-14T01:47:59.857Z,98225.97
2022-10-14T01:51:23.442Z,98231.09
2022-10-14T01:54:38.002Z,98225.31
2022-10-14T01:57:50.628Z,98225.97
2022-10-14T02:00:57.730Z,98221.81
2022-10-14T02:04:06.722Z,98224.81
2022-10-14T02:07:32.187Z,98219.97
2022-10-14T02:11:04.510Z,98211.81
2022-10-14T02:14:27.998Z,98201.38
2022-10-14T02:17:45.151Z,98208.69
2022-10-14T02:21:08.429Z,98202.72
2022-10-14T02:24:24.588Z,98201.22
2022-10-14T02:27:41.090Z,98202.19
2022-10-14T02:30:55.238Z,98206.81
2022-10-14T02:34:14.590Z,98200.22
2022-10-14T02:37:26.721Z,98199.22
2022-10-14T02:40:42.808Z,98203.50
2022-10-14T02:43:49.660Z,98185.28
2022-10-14T02:46:57.436Z,98198.88
2022-10-14T02:50:11.050Z,98191.25
2022-10-14T02:53:20.927Z,98194.22
2022-10-14T02:56:27.302Z,98199.00
2022-10-14T02:59:32.854Z,98201.47
2022-10-14T03:02:41.640Z,98197.81
2022-10-14T03:05:47.396Z,98195.84
2022-10-14T03:08:57.664Z,98194.81
2022-10-14T03:12:03.998Z,98198.34
2022-10-14T03:15:12.790Z,98191.69
2022-10-14T03:18:19.282Z,98190.22
2022-10-14T03:21:27.636Z,98192.72
2022-10-14T03:24:36.297Z,98196.22
2022-10-14T03:28:12.853Z,98187.56
2022-10-14T03:31:41.648Z,98194.03
2022-10-14T03:35:13.494Z,98184.59
2022-10-14T03:38:22.482Z,98186.63
2022-10-14T03:41:32.170Z,98184.78
2022-10-14T03:44:38.862Z,98187.91
2022-10-14T03:47:53.593Z,98188.25
2022-10-14T03:50:59.751Z,98190.25
2022-10-14T03:54:05.604Z,98168.84
2022-10-14T03:57:14.667Z,98192.28
2022-10-14T04:00:34.198Z,98182.28
2022-10-14T04:04:07.426Z,98177.66
2022-10-14T04:07:14.273Z,98179.00
2022-10-14T04:10:27.542Z,98184.13
2022-10-14T04:13:39.006Z,98175.69
2022-10-14T04:16:48.897Z,98178.53
2022-10-14T04:19:58.518Z,98183.66
2022-10-14T04:23:05.045Z,98173.25
2022-10-14T04:26:13.981Z,98179.03
2022-10-14T04:29:25.536Z,98174.25
2022-10-14T04:32:42.818Z,98155.00
2022-10-14T04:35:49.600Z,98163.94
2022-10-14T04:39:03.184Z,98169.53
2022-10-14T04:42:09.102Z,98173.66
2022-10-14T04:45:18.380Z,98162.84
2022-10-14T04:48:30.269Z,98157.88
2022-10-14T04:51:36.340Z,98159.66
2022-10-14T04:55:00.681Z,98156.97
2022-10-14T04:58:13.542Z,98150.59
2022-10-14T05:01:24.298Z,98160.47
2022-10-14T05:04:31.324Z,98162.97
2022-10-14T05:07:39.762Z,98164.53
2022-10-14T05:11:12.108Z,98156.06
2022-10-14T05:14:23.079Z,98158.28
2022-10-14T05:17:44.652Z,98149.94
2022-10-14T05:20:53.413Z,98157.84
2022-10-14T05:24:01.896Z,98160.25
2022-10-14T05:27:11.236Z,98154.34
2022-10-14T05:30:17.684Z,98150.31
2022-10-14T05:33:30.259Z,98151.88
2022-10-14T05:36:36.370Z,98154.38
2022-10-14T05:39:42.153Z,98159.72
2022-10-14T05:42:47.859Z,98155.75
2022-10-14T05:45:54.278Z,98154.06
2022-10-14T05:49:06.202Z,98156.25
2022-10-14T05:52:16.032Z,98145.63
2022-10-14T05:55:25.398Z,98136.69
2022-10-14T05:58:38.654Z,98146.63
2022-10-14T06:01:45.208Z,98149.94
2022-10-14T06:04:53.419Z,98153.41
2022-10-14T06:07:59.219Z,98154.41
2022-10-14T06:11:07.630Z,98156.72
2022-10-14T06:14:13.401Z,98162.00
2022-10-14T06:17:19.771Z,98161.97
2022-10-14T06:20:31.052Z,98158.34
2022-10-14T06:23:36.882Z,98156.88
2022-10-14T06:26:42.493Z,98153.78
2022-10-14T06:29:50.305Z,98165.63
2022-10-14T06:32:56.743Z,98160.06
2022-10-14T06:36:07.229Z,98160.81
2022-10-14T06:39:13.246Z,98165.78
2022-10-14T06:42:19.088Z,98171.72
2022-10-14T06:45:24.639Z,98165.69
2022-10-14T06:48:30.422Z,98173.25
2022-10-14T06:51:39.073Z,98166.34
2022-10-14T06:54:48.184Z,98176.72
2022-10-14T06:57:54.141Z,98173.88
2022-10-14T07:01:05.484Z,98182.78
2022-10-14T07:04:11.245Z,98179.03
2022-10-14T07:07:19.454Z,98163.78
2022-10-14T07:10:25.114Z,98169.88
2022-10-14T07:13:30.950Z,98174.31
2022-10-14T07:16:36.575Z,98180.66
2022-10-14T07:19:42.164Z,98178.09
2022-10-14T07:22:52.702Z,98177.88
2022-10-14T07:26:00.196Z,98179.50
2022-10-14T07:29:07.669Z,98179.44
2022-10-14T07:32:13.211Z,98176.69
2022-10-14T07:35:19.867Z,98176.13
2022-10-14T07:38:28.091Z,98186.88
2022-10-14T07:41:33.741Z,98174.75
2022-10-14T07:44:40.102Z,98178.06
2022-10-14T07:47:45.901Z,98187.44
2022-10-14T07:50:53.651Z,98181.44
2022-10-14T07:54:05.005Z,98186.94
2022-10-14T07:57:10.774Z,98185.84
2022-10-14T08:00:16.829Z,98184.19
2022-10-14T08:03:24.642Z,98173.66
2022-10-14T08:06:30.726Z,98178.94
2022-10-14T08:09:40.520Z,98177.22
2022-10-14T08:12:46.476Z,98177.13
2022-10-14T08:15:52.141Z,98173.53
2022-10-14T08:19:00.750Z,98170.03
2022-10-14T08:22:09.377Z,98176.69
2022-10-14T08:25:17.819Z,98179.72
2022-10-14T08:28:23.510Z,98179.63
2022-10-14T08:31:29.260Z,98186.16
2022-10-14T08:34:34.833Z,98178.56
2022-10-14T08:37:40.519Z,98171.19
2022-10-14T08:41:10.494Z,98186.84
2022-10-14T08:44:25.731Z,98185.44
2022-10-14T08:47:42.056Z,98182.59
2022-10-14T08:50:56.664Z,98185.91
2022-10-14T08:54:15.445Z,98178.28
2022-10-14T08:57:29.578Z,98169.22
2022-10-14T09:00:38.970Z,98177.47
2022-10-14T09:03:45.739Z,98174.63
2022-10-14T09:06:56.294Z,98180.84
2022-10-14T09:10:10.776Z,98174.06
2022-10-14T09:13:34.172Z,98182.50
2022-10-14T09:16:48.204Z,98183.72
2022-10-14T09:20:16.201Z,98168.88
2022-10-14T09:23:25.896Z,98175.88
2022-10-14T09:26:43.723Z,98178.56
2022-10-14T09:29:57.591Z,98181.69
2022-10-14T09:33:03.727Z,98185.59
2022-10-14T09:36:18.759Z,98179.78
2022-10-14T09:39:24.609Z,98182.06
2022-10-14T09:42:47.471Z,98178.28
2022-10-14T09:46:03.376Z,98183.78
2022-10-14T09:49:19.064Z,98184.53
2022-10-14T09:52:29.391Z,98180.63
2022-10-14T09:55:36.379Z,98175.50
2022-10-14T09:58:51.149Z,98174.13
2022-10-14T10:02:04.177Z,98178.19
2022-10-14T10:05:25.521Z,98170.53
2022-10-14T10:08:31.349Z,98172.91
2022-10-14T10:11:40.291Z,98175.38
2022-10-14T10:15:03.937Z,98177.56
2022-10-14T10:18:22.427Z,98168.09
2022-10-14T10:21:33.310Z,98172.91
2022-10-14T10:24:39.058Z,98171.75
2022-10-14T10:27:48.104Z,98166.47
2022-10-14T10:31:22.148Z,98169.78
2022-10-14T10:35:07.141Z,98161.56
2022-10-14T10:38:31.117Z,98161.44
2022-10-14T10:42:02.659Z,98153.19
2022-10-14T10:45:36.833Z,98150.78
2022-10-14T10:48:51.372Z,98151.59
2022-10-14T10:52:17.363Z,98152.72
2022-10-14T10:55:42.557Z,98150.53
2022-10-14T10:59:12.301Z,98147.31
2022-10-14T11:03:13.768Z,98145.56
2022-10-14T11:06:58.454Z,98145.34
2022-10-14T11:10:39.781Z,98137.44
2022-10-14T11:13:58.673Z,98143.59
2022-10-14T11:17:21.173Z,98136.13
2022-10-14T11:20:50.000Z,98132.19
2022-10-14T11:24:11.839Z,98137.75
2022-10-14T11:27:34.492Z,98131.94
2022-10-14T11:30:53.318Z,98137.44
2022-10-14T11:34:22.996Z,98131.97
2022-10-14T11:37:52.512Z,98129.22
2022-10-14T11:41:19.392Z,98126.47
2022-10-14T11:44:38.988Z,98118.13
2022-10-14T11:47:53.019Z,98127.91
2022-10-14T11:51:11.560Z,98128.13
2022-10-14T11:54:28.823Z,98124.72
2022-10-14T11:57:45.752Z,98121.31
2022-10-14T12:01:02.857Z,98117.63
2022-10-14T12:04:29.228Z,98112.00
2022-10-14T12:07:48.082Z,98111.59
2022-10-14T12:11:02.303Z,98110.63
2022-10-14T12:14:19.624Z,98110.78
2022-10-14T12:17:39.068Z,98089.94
2022-10-14T12:20:58.342Z,98101.94
2022-10-14T12:24:18.316Z,98089.59
2022-10-14T12:30:45.041Z,98096.16
2022-10-14T12:34:39.086Z,98093.53
2022-10-14T12:37:54.515Z,98089.47
2022-10-14T12:41:40.976Z,98084.94
2022-10-14T12:44:56.299Z,98080.56
2022-10-14T12:48:11.014Z,98076.09
2022-10-14T12:51:25.320Z,98078.94
2022-10-14T12:54:40.477Z,98077.59
2022-10-14T12:57:47.155Z,98066.97
2022-10-14T13:01:05.130Z,98079.28
2022-10-14T13:04:21.327Z,98083.56
2022-10-14T13:07:50.781Z,98075.78
2022-10-14T13:11:16.854Z,98071.66
2022-10-14T13:14:30.111Z,98075.63
2022-10-14T13:17:49.654Z,98066.19
2022-10-14T13:20:56.789Z,98081.19
2022-10-14T13:24:15.718Z,98074.72
2022-10-14T13:27:43.630Z,98083.09
2022-10-14T13:31:07.715Z,98085.34
2022-10-14T13:34:32.893Z,98071.94
2022-10-14T13:37:45.978Z,98074.97
2022-10-14T13:40:59.614Z,98066.25
2022-10-14T13:44:09.059Z,98067.06
2022-10-14T13:47:17.342Z,98061.19
2022-10-14T13:50:36.417Z,98075.19
2022-10-14T13:53:54.630Z,98066.88
2022-10-14T13:57:38.183Z,98074.28
2022-10-14T14:00:42.712Z,98068.03
2022-10-14T14:03:56.376Z,98064.31
2022-10-14T14:07:59.143Z,98074.59
2022-10-14T14:10:36.361Z,98065.72
2022-10-14T14:14:06.224Z,98068.16
2022-10-14T14:17:22.254Z,98067.03
2022-10-14T14:20:34.144Z,98056.66
2022-10-14T14:23:39.722Z,98059.38
2022-10-14T14:26:45.366Z,98059.44
2022-10-14T14:29:57.973Z,98061.47
2022-10-14T14:33:09.712Z,98066.41
2022-10-14T14:36:27.471Z,98055.53
2022-10-14T14:39:34.023Z,98054.19
2022-10-14T14:42:43.503Z,98049.44
2022-10-14T14:45:51.848Z,98060.25
2022-10-14T14:49:00.682Z,98050.97
2022-10-14T14:52:09.201Z,98055.50
2022-10-14T14:55:40.968Z,98047.25
2022-10-14T14:58:53.114Z,98056.94
2022-10-14T15:02:06.075Z,98052.19
2022-10-14T15:05:14.738Z,98053.22
2022-10-14T15:08:27.542Z,98051.78
2022-10-14T15:11:34.665Z,98051.75
2022-10-14T15:14:52.826Z,98048.47
2022-10-14T15:18:18.685Z,98046.41
2022-10-14T15:21:31.944Z,98048.63
2022-10-14T15:24:37.703Z,98052.38
2022-10-14T15:27:55.692Z,98036.69
2022-10-14T15:31:05.568Z,98046.38
2022-10-14T15:34:23.365Z,98053.72
2022-10-14T15:37:35.831Z,98046.50
2022-10-14T15:40:43.180Z,98046.84
2022-10-14T15:43:49.813Z,98044.88
2022-10-14T15:47:07.866Z,98054.31
2022-10-14T15:50:26.297Z,98047.56
2022-10-14T15:53:32.323Z,98054.84
2022-10-14T15:56:40.145Z,98051.97
2022-10-14T15:59:46.532Z,98044.94
2022-10-14T16:02:59.237Z,98047.59
2022-10-14T16:06:09.466Z,98053.56
2022-10-14T16:09:15.969Z,98046.16
2022-10-14T16:12:21.989Z,98040.97
2022-10-14T16:15:38.941Z,98051.84
2022-10-14T16:18:46.590Z,98040.34
2022-10-14T16:21:58.529Z,98048.56
2022-10-14T16:25:04.320Z,98050.25
2022-10-14T16:28:10.713Z,98048.13
2022-10-14T16:31:18.339Z,98044.41
2022-10-14T16:34:26.943Z,98052.19
2022-10-14T16:37:35.971Z,98058.34
2022-10-14T16:40:42.020Z,98051.38
2022-10-14T16:43:48.389Z,98051.16
2022-10-14T16:47:11.101Z,98057.72
2022-10-14T16:50:16.845Z,98047.63
2022-10-14T16:53:38.788Z,98056.88
2022-10-14T16:56:57.182Z,98056.72
2022-10-14T17:00:02.969Z,98066.09
2022-10-14T17:03:17.535Z,98066.28
2022-10-14T17:06:26.080Z,98062.56
2022-10-14T17:09:35.657Z,98060.69
2022-10-14T17:12:42.522Z,98065.47
2022-10-14T17:15:48.266Z,98060.53
2022-10-14T17:18:54.081Z,98059.75
2022-10-14T17:21:59.772Z,98061.34
2022-10-14T17:25:10.863Z,98056.72
2022-10-14T17:28:16.609Z,98061.31
2022-10-14T17:31:26.187Z,98064.25
2022-10-14T17:34:32.054Z,98058.75
2022-10-14T17:37:42.648Z,98058.03
2022-10-14T17:40:53.307Z,98056.72
2022-10-14T17:44:13.768Z,98055.50
2022-10-14T17:47:20.254Z,98060.16
2022-10-14T17:50:27.286Z,98056.28
2022-10-14T17:53:34.085Z,98053.28
2022-10-14T17:56:47.358Z,98061.03
2022-10-14T17:59:53.012Z,98055.19
2022-10-14T18:02:59.673Z,98061.28
2022-10-14T18:06:16.354Z,98058.53
2022-10-14T18:09:22.212Z,98059.28
2022-10-14T18:12:30.646Z,98051.78
2022-10-14T18:15:36.738Z,98055.34
2022-10-14T18:18:44.983Z,98058.13
2022-10-14T18:21:51.835Z,98052.41
2022-10-14T18:24:57.463Z,98057.19
2022-10-14T18:28:20.324Z,98059.84
2022-10-14T18:31:29.815Z,98054.97
2022-10-14T18:34:35.688Z,98059.09
2022-10-14T18:37:41.296Z,98065.91
2022-10-14T18:40:49.267Z,98063.03
2022-10-14T18:44:00.661Z,98060.72
2022-10-14T18:47:08.817Z,98058.88
2022-10-14T18:50:27.455Z,98066.03
2022-10-14T18:53:36.162Z,98055.75
2022-10-14T18:56:42.494Z,98059.38
2022-10-14T18:59:52.930Z,98059.84
2022-10-14T19:02:58.754Z,98054.31
2022-10-14T19:06:05.414Z,98060.31
2022-10-14T19:09:29.763Z,98049.03
2022-10-14T19:12:48.128Z,98054.09
2022-10-14T19:16:03.484Z,98050.13
2022-10-14T19:19:15.279Z,98046.03
2022-10-14T19:22:21.219Z,98045.19
2022-10-14T19:25:27.179Z,98039.25
2022-10-14T19:28:32.816Z,98042.16
2022-10-14T19:31:46.177Z,98041.31
2022-10-14T19:34:51.740Z,98050.88
2022-10-14T19:37:57.336Z,98043.53
2022-10-14T19:41:11.528Z,98050.13
2022-10-14T19:44:25.649Z,98049.38
2022-10-14T19:47:35.839Z,98043.72
2022-10-14T19:50:44.307Z,98045.88
2022-10-14T19:53:49.972Z,98044.22
2022-10-14T19:56:55.588Z,98042.00
2022-10-14T20:00:01.222Z,98045.50
2022-10-14T20:03:29.643Z,98045.00
2022-10-14T20:06:38.731Z,98042.72
2022-10-14T20:09:49.074Z,98046.59
2022-10-14T20:12:56.588Z,98044.22
2022-10-14T20:16:05.134Z,98050.41
2022-10-14T20:19:18.486Z,98039.75
2022-10-14T20:22:24.582Z,98050.50
2022-10-14T20:25:30.458Z,98039.84
2022-10-14T20:28:45.915Z,98045.09
2022-10-14T20:31:54.638Z,98042.78
2022-10-14T20:35:18.762Z,98045.47
2022-10-14T20:38:24.730Z,98043.16
2022-10-14T20:41:30.578Z,98040.50
2022-10-14T20:48:04.614Z,98032.34
2022-10-14T20:51:18.429Z,98041.31
2022-10-14T20:54:26.380Z,98032.44
2022-10-14T20:57:32.255Z,98032.78
2022-10-14T21:00:37.884Z,98033.81
2022-10-14T21:03:53.446Z,98030.13
2022-10-14T21:07:04.994Z,98018.63
2022-10-14T21:10:12.068Z,98018.97
2022-10-14T21:13:27.250Z,98025.78
2022-10-14T21:16:37.310Z,98014.84
2022-10-14T21:19:42.897Z,98019.25
2022-10-14T21:22:51.069Z,98017.97
2022-10-14T21:26:01.300Z,98017.88
2022-10-14T21:29:08.222Z,98017.31
2022-10-14T21:32:16.270Z,98016.09
2022-10-14T21:35:21.812Z,98008.94
2022-10-14T21:38:32.174Z,98006.75
2022-10-14T21:41:38.316Z,98008.94
2022-10-14T21:44:43.845Z,98005.19
2022-10-14T21:47:52.968Z,98004.34
2022-10-14T21:51:12.623Z,98003.97
2022-10-14T21:54:26.290Z,98000.22
2022-10-14T21:57:31.901Z,97989.31
2022-10-14T22:00:41.330Z,97998.16
2022-10-14T22:03:48.066Z,97993.38
2022-10-14T22:06:58.154Z,97990.88
2022-10-14T22:10:29.923Z,97991.97
2022-10-14T22:13:39.888Z,97983.97
2022-10-14T22:16:45.510Z,97978.00
2022-10-14T22:19:51.072Z,97981.41
2022-10-14T22:22:59.076Z,97977.94
2022-10-14T22:26:08.797Z,97989.91
2022-10-14T22:29:18.575Z,97985.97
2022-10-14T22:32:24.130Z,97982.91
2022-10-14T22:35:29.716Z,97976.00
2022-10-14T22:38:44.642Z,97977.41
2022-10-14T22:41:53.907Z,97973.19
2022-10-14T22:44:59.609Z,97971.63
2022-10-14T22:48:05.232Z,97978.94
2022-10-14T22:51:14.416Z,97969.16
2022-10-14T22:54:20.138Z,97976.84
2022-10-14T22:57:28.391Z,97977.75
2022-10-14T23:00:34.426Z,97975.16
2022-10-14T23:03:41.155Z,97975.81
2022-10-14T23:06:49.573Z,97968.03
2022-10-14T23:09:55.072Z,97966.63
2022-10-14T23:13:19.893Z,97969.13
2022-10-14T23:16:29.155Z,97969.59
2022-10-14T23:19:34.899Z,97961.22
2022-10-14T23:22:40.969Z,97965.56
2022-10-14T23:25:50.562Z,97956.19
2022-10-14T23:29:04.966Z,97957.56
2022-10-14T23:32:10.647Z,97950.88
2022-10-14T23:35:18.776Z,97944.72
2022-10-14T23:38:24.422Z,97943.97
2022-10-14T23:41:36.676Z,97939.38
2022-10-14T23:44:49.492Z,97940.41
2022-10-14T23:47:55.004Z,97939.84
2022-10-14T23:51:00.915Z,97942.69
2022-10-14T23:54:09.228Z,97941.69
2022-10-14T23:57:17.888Z,97950.97
